Time;durP1;ratioP1;P1;durP2;ratioP2;P2;SDS_P1;SDS_P2;PMS_P1;PMS_P2;Temp;Humidity;BMP_temperature;BMP_pressure;BME280_temperature;BME280_humidity;BME280_pressure;Samples;Min_cycle;Max_cycle;Signal;HPM_P1;HPM_P2
2023/10/16 00:00:29;;;;;;;2.05;0.50;;;23.50;99.90;;;;;;5063837;28;20563;-80
2023/10/16 00:02:59;;;;;;;0.77;0.38;;;23.30;99.90;;;;;;5069995;28;20220;-78
2023/10/16 00:05:38;;;;;;;2.55;0.70;;;23.10;99.90;;;;;;5051733;28;20201;-79
2023/10/16 00:08:09;;;;;;;2.38;0.50;;;23.30;99.90;;;;;;5064914;28;20205;-80
2023/10/16 00:10:40;;;;;;;1.50;0.30;;;23.40;99.90;;;;;;5062536;28;20561;-81
2023/10/16 00:13:12;;;;;;;0.80;0.40;;;23.70;99.90;;;;;;5066477;28;20237;-84
2023/10/16 00:15:49;;;;;;;0.63;0.32;;;23.90;99.90;;;;;;5052577;28;20274;-83
2023/10/16 00:18:23;;;;;;;0.65;0.30;;;24.10;99.90;;;;;;5066086;28;20197;-78
2023/10/16 00:20:57;;;;;;;2.25;0.80;;;24.30;99.90;;;;;;5054128;28;20200;-80
2023/10/16 00:23:30;;;;;;;5.43;1.00;;;24.50;99.90;;;;;;5059793;28;20310;-86
2023/10/16 00:26:01;;;;;;;0.63;0.40;;;24.80;99.90;;;;;;5059635;28;20205;-83
2023/10/16 00:28:32;;;;;;;3.30;0.40;;;24.90;99.90;;;;;;5065923;28;20196;-84
2023/10/16 00:31:03;;;;;;;0.77;0.60;;;24.90;99.90;;;;;;5061063;28;20198;-83
2023/10/16 00:33:34;;;;;;;0.68;0.40;;;24.90;99.90;;;;;;5056939;28;20573;-80
2023/10/16 00:36:07;;;;;;;1.02;0.50;;;24.80;99.90;;;;;;5069735;28;20307;-78
2023/10/16 00:38:38;;;;;;;1.83;0.40;;;25.00;99.90;;;;;;5061551;28;20197;-77
2023/10/16 00:41:23;;;;;;;0.68;0.40;;;25.20;99.90;;;;;;5061670;28;20194;-79
2023/10/16 00:43:56;;;;;;;0.50;0.30;;;25.40;99.90;;;;;;5063605;28;20804;-79
2023/10/16 00:46:38;;;;;;;2.08;0.45;;;25.30;99.90;;;;;;5070441;28;20281;-83
2023/10/16 00:49:12;;;;;;;2.83;0.47;;;25.40;99.90;;;;;;5059941;28;20598;-79
2023/10/16 00:51:45;;;;;;;0.60;0.25;;;25.60;99.90;;;;;;5064149;28;20201;-79
2023/10/16 00:54:26;;;;;;;1.45;0.35;;;25.80;99.90;;;;;;5064946;28;20197;-79
2023/10/16 00:57:01;;;;;;;0.35;0.20;;;26.00;99.90;;;;;;5063176;28;20233;-81
2023/10/16 00:59:32;;;;;;;1.42;0.38;;;26.30;99.90;;;;;;5055592;28;20201;-82
2023/10/16 01:02:13;;;;;;;0.32;0.30;;;26.20;99.90;;;;;;5056716;28;20208;-81
2023/10/16 01:04:47;;;;;;;0.57;0.38;;;26.00;99.90;;;;;;5062302;28;20279;-85
2023/10/16 01:07:19;;;;;;;0.20;0.20;;;25.70;99.90;;;;;;5057879;28;20300;-81
2023/10/16 01:09:51;;;;;;;3.60;0.70;;;25.30;99.90;;;;;;5065296;28;20201;-84
2023/10/16 01:12:22;;;;;;;1.10;0.57;;;25.00;99.90;;;;;;5066186;28;20194;-79
2023/10/16 01:14:53;;;;;;;5.60;0.82;;;24.80;99.90;;;;;;5062549;28;20193;-81
2023/10/16 01:17:32;;;;;;;0.73;0.52;;;24.90;99.90;;;;;;5071011;28;20193;-80
2023/10/16 01:20:03;;;;;;;5.43;0.40;;;24.90;99.90;;;;;;5064343;28;20645;-78
2023/10/16 01:22:35;;;;;;;1.98;0.20;;;24.80;99.90;;;;;;5056717;28;20258;-82
2023/10/16 01:25:10;;;;;;;1.40;0.30;;;24.80;99.90;;;;;;5052952;28;20197;-82
2023/10/16 01:27:40;;;;;;;2.97;0.50;;;25.10;99.90;;;;;;5054574;28;20204;-84
2023/10/16 01:30:12;;;;;;;0.28;0.20;;;25.60;99.90;;;;;;5061352;28;20276;-83
2023/10/16 01:32:43;;;;;;;1.83;0.40;;;25.70;99.90;;;;;;5068585;28;20737;-81
2023/10/16 01:35:14;;;;;;;1.13;0.57;;;25.80;99.90;;;;;;5062874;28;20201;-84
2023/10/16 01:37:46;;;;;;;0.38;0.30;;;25.80;99.90;;;;;;5059910;28;20200;-84
2023/10/16 01:40:22;;;;;;;0.77;0.25;;;25.60;99.90;;;;;;5068942;28;20687;-81
2023/10/16 01:42:55;;;;;;;0.52;0.30;;;25.20;99.90;;;;;;5059674;28;20208;-81
2023/10/16 01:45:30;;;;;;;1.63;0.52;;;25.20;99.90;;;;;;5063642;28;20200;-83
2023/10/16 01:48:04;;;;;;;0.60;0.30;;;25.40;99.90;;;;;;5054020;28;20250;-85
2023/10/16 01:50:38;;;;;;;4.95;0.50;;;25.50;99.90;;;;;;5063441;28;20544;-81
2023/10/16 01:53:13;;;;;;;1.10;0.40;;;25.60;99.90;;;;;;5058458;28;20328;-85
2023/10/16 01:55:51;;;;;;;0.40;0.30;;;25.80;99.90;;;;;;5062238;28;20231;-78
2023/10/16 01:58:21;;;;;;;1.42;0.30;;;25.90;99.90;;;;;;5062368;28;20196;-87
2023/10/16 02:00:54;;;;;;;2.97;0.45;;;26.00;99.90;;;;;;5062954;28;20193;-80
2023/10/16 02:03:27;;;;;;;1.27;0.32;;;26.10;99.90;;;;;;5054267;28;20284;-87
2023/10/16 02:05:58;;;;;;;3.95;0.30;;;25.90;99.90;;;;;;5062881;28;20202;-83
2023/10/16 02:08:29;;;;;;;1.20;0.35;;;25.60;99.90;;;;;;5065224;28;20551;-85
2023/10/16 02:11:02;;;;;;;0.22;0.20;;;25.40;99.90;;;;;;5055808;28;20342;-85
2023/10/16 02:13:35;;;;;;;1.35;0.40;;;25.20;99.90;;;;;;5073079;28;20200;-79
2023/10/16 02:16:06;;;;;;;1.15;0.38;;;25.30;99.90;;;;;;5074143;28;20220;-79
2023/10/16 02:18:41;;;;;;;1.40;0.30;;;25.10;99.90;;;;;;5067385;28;20201;-79
2023/10/16 02:21:13;;;;;;;1.88;0.40;;;24.80;99.90;;;;;;5067442;28;20232;-77
2023/10/16 02:23:44;;;;;;;0.95;0.30;;;24.60;99.90;;;;;;5072019;28;20556;-78
2023/10/16 02:26:18;;;;;;;0.45;0.30;;;24.60;99.90;;;;;;5061219;28;20241;-81
2023/10/16 02:28:54;;;;;;;1.95;0.30;;;24.50;99.90;;;;;;5054388;28;20306;-82
2023/10/16 02:31:24;;;;;;;0.30;0.30;;;24.50;99.90;;;;;;5056580;28;20265;-76
2023/10/16 02:34:00;;;;;;;3.70;0.55;;;24.30;99.90;;;;;;5068800;28;20189;-78
2023/10/16 02:36:32;;;;;;;1.58;0.47;;;24.30;99.90;;;;;;5063981;28;20329;-81
2023/10/16 02:39:08;;;;;;;3.45;0.40;;;24.60;99.90;;;;;;5060530;28;20200;-77
2023/10/16 02:41:41;;;;;;;1.02;0.63;;;24.90;99.90;;;;;;5066063;28;20250;-76
2023/10/16 02:44:12;;;;;;;1.20;0.30;;;25.20;99.90;;;;;;5064592;28;20862;-79
2023/10/16 02:46:43;;;;;;;4.95;0.40;;;25.40;99.90;;;;;;5069817;28;20226;-79
2023/10/16 02:49:14;;;;;;;0.95;0.50;;;25.50;99.90;;;;;;5071590;28;20233;-81
2023/10/16 02:51:45;;;;;;;1.00;0.30;;;25.60;99.90;;;;;;5065851;28;20599;-84
2023/10/16 02:54:16;;;;;;;3.00;0.30;;;25.70;99.90;;;;;;5071178;28;20223;-81
2023/10/16 02:56:50;;;;;;;2.10;0.40;;;25.40;99.90;;;;;;5069442;28;20233;-83
2023/10/16 02:59:20;;;;;;;0.55;0.20;;;25.20;99.90;;;;;;5072526;28;20279;-82
2023/10/16 03:01:56;;;;;;;0.85;0.30;;;25.40;99.90;;;;;;5068200;28;20197;-81
2023/10/16 03:04:27;;;;;;;1.83;0.40;;;25.60;99.90;;;;;;5061716;28;20717;-79
2023/10/16 03:06:59;;;;;;;3.15;0.40;;;25.70;99.90;;;;;;5067014;28;20188;-78
2023/10/16 03:09:30;;;;;;;2.50;0.30;;;25.80;99.90;;;;;;5059841;28;20667;-82
2023/10/16 03:12:08;;;;;;;2.60;0.20;;;25.80;99.90;;;;;;5057354;28;20312;-78
2023/10/16 03:14:51;;;;;;;2.92;0.30;;;25.80;99.90;;;;;;5065926;28;20197;-83
2023/10/16 03:17:25;;;;;;;0.75;0.20;;;25.80;99.90;;;;;;5066618;28;20683;-78
2023/10/16 03:19:57;;;;;;;1.48;0.30;;;25.80;99.90;;;;;;5063989;28;20295;-84
2023/10/16 03:22:28;;;;;;;1.70;0.38;;;25.70;99.90;;;;;;5072371;28;20200;-80
2023/10/16 03:24:59;;;;;;;0.50;0.30;;;25.70;99.90;;;;;;5072950;28;20196;-78
2023/10/16 03:27:33;;;;;;;2.42;0.40;;;25.80;99.90;;;;;;5069355;28;20212;-80
2023/10/16 03:30:04;;;;;;;1.13;0.30;;;25.90;99.90;;;;;;5066116;28;20204;-78
2023/10/16 03:32:35;;;;;;;3.72;0.47;;;25.80;99.00;;;;;;5059339;28;20646;-78
2023/10/16 03:35:09;;;;;;;1.35;0.22;;;25.90;98.20;;;;;;5052807;28;20189;-78
2023/10/16 03:37:40;;;;;;;0.63;0.30;;;26.00;97.90;;;;;;5070553;28;20273;-77
2023/10/16 03:40:14;;;;;;;0.82;0.30;;;25.90;97.00;;;;;;5062950;28;20205;-79
2023/10/16 03:42:49;;;;;;;4.78;0.45;;;25.60;97.10;;;;;;5067344;28;20220;-79
2023/10/16 03:45:21;;;;;;;1.55;0.20;;;25.50;97.30;;;;;;5064012;28;20194;-78
2023/10/16 03:47:54;;;;;;;1.58;0.20;;;25.50;97.50;;;;;;5053014;28;20247;-79
2023/10/16 03:50:34;;;;;;;0.57;0.20;;;25.30;97.10;;;;;;5068933;28;20192;-79
2023/10/16 03:53:07;;;;;;;3.53;0.70;;;25.20;97.50;;;;;;5075408;28;20188;-78
2023/10/16 03:55:47;;;;;;;0.90;0.43;;;25.00;97.90;;;;;;5063762;28;20228;-77
2023/10/16 03:58:20;;;;;;;1.65;0.50;;;24.70;99.50;;;;;;5065053;28;20189;-78
2023/10/16 04:00:56;;;;;;;6.28;0.90;;;24.30;99.90;;;;;;5058789;28;20185;-73
2023/10/16 04:03:28;;;;;;;8.52;1.08;;;23.10;99.90;;;;;;5076934;28;20188;-74
2023/10/16 04:06:08;;;;;;;3.33;0.68;;;21.50;99.90;;;;;;5072443;28;20197;-74
2023/10/16 04:08:39;;;;;;;2.67;1.10;;;20.40;99.90;;;;;;5067803;28;20654;-74
2023/10/16 04:11:12;;;;;;;4.78;0.63;;;19.90;99.90;;;;;;5061577;28;20193;-74
2023/10/16 04:13:48;;;;;;;6.65;0.40;;;19.90;99.90;;;;;;5064903;28;20197;-74
2023/10/16 04:21:57;;;;;;;1.67;0.30;;;20.40;99.90;;;;;;5067314;28;20249;-75
2023/10/16 04:24:40;;;;;;;8.63;0.60;;;20.50;99.90;;;;;;5057079;28;20190;-76
2023/10/16 04:33:23;;;;;;;2.17;0.57;;;19.60;99.90;;;;;;5110644;27;21112;-75
2023/10/16 04:35:53;;;;;;;1.27;0.40;;;19.30;99.90;;;;;;5109091;28;20195;-77
2023/10/16 04:38:31;;;;;;;3.53;0.40;;;19.30;99.90;;;;;;5090591;28;20203;-75
2023/10/16 04:44:21;;;;;;;2.35;0.30;;;18.80;99.90;;;;;;5108226;28;20547;-79
2023/10/16 04:47:00;;;;;;;3.90;0.32;;;18.40;99.90;;;;;;5102889;27;20192;-77
2023/10/16 04:49:36;;;;;;;0.60;0.30;;;18.10;99.90;;;;;;5090389;28;20275;-75
2023/10/16 04:52:23;;;;;;;0.45;0.20;;;17.70;99.90;;;;;;5093874;28;20218;-75
2023/10/16 04:54:59;;;;;;;1.10;0.20;;;17.60;99.90;;;;;;5102454;28;20223;-78
2023/10/16 04:58:16;;;;;;;0.40;0.20;;;17.50;99.90;;;;;;5086513;28;20267;-76
2023/10/16 05:03:35;;;;;;;0.57;0.47;;;17.30;99.90;;;;;;5089881;28;20207;-78
2023/10/16 05:06:14;;;;;;;0.43;0.30;;;17.20;99.90;;;;;;5082444;28;20290;-76
2023/10/16 05:08:59;;;;;;;0.65;0.30;;;17.10;99.90;;;;;;5078914;28;20754;-75
2023/10/16 05:11:33;;;;;;;0.55;0.20;;;17.10;99.90;;;;;;5088339;28;20593;-77
2023/10/16 05:14:19;;;;;;;0.32;0.20;;;17.00;99.90;;;;;;5081903;28;20189;-76
2023/10/16 05:17:06;;;;;;;0.30;0.30;;;16.90;99.90;;;;;;5080598;28;20196;-77
2023/10/16 05:19:46;;;;;;;0.45;0.30;;;16.90;99.90;;;;;;5082297;28;20211;-80
2023/10/16 06:15:20;;;;;;;0.50;0.30;;;17.60;99.90;;;;;;5064897;28;20219;-80
2023/10/16 06:17:52;;;;;;;0.20;0.20;;;17.70;99.90;;;;;;5065373;28;20281;-77
2023/10/16 06:20:23;;;;;;;0.30;0.30;;;17.80;99.90;;;;;;5073913;28;20193;-78
2023/10/16 06:22:54;;;;;;;1.48;0.40;;;17.80;99.90;;;;;;5075028;28;20209;-76
2023/10/16 06:25:28;;;;;;;0.30;0.30;;;17.90;99.90;;;;;;5074404;28;20625;-77
2023/10/16 06:28:08;;;;;;;0.22;0.22;;;17.90;99.90;;;;;;5071775;28;20275;-80
2023/10/16 06:30:39;;;;;;;2.00;0.30;;;18.00;99.90;;;;;;5074841;28;20200;-76
2023/10/16 06:33:14;;;;;;;0.70;0.30;;;18.20;99.90;;;;;;5074902;28;20207;-82
2023/10/16 06:35:45;;;;;;;0.50;0.20;;;18.50;99.90;;;;;;5069478;28;20205;-77
2023/10/16 06:38:20;;;;;;;0.17;0.17;;;18.80;99.90;;;;;;5062367;28;20200;-77
2023/10/16 06:40:55;;;;;;;0.20;0.20;;;19.00;99.90;;;;;;5074887;28;20672;-80
2023/10/16 06:43:28;;;;;;;0.50;0.17;;;19.20;99.90;;;;;;5070850;28;20672;-78
2023/10/16 06:46:09;;;;;;;0.22;0.17;;;19.10;99.90;;;;;;5067536;28;20205;-78
2023/10/16 06:48:40;;;;;;;0.38;0.10;;;19.00;99.90;;;;;;5055030;28;20201;-80
2023/10/16 06:51:15;;;;;;;1.02;0.30;;;18.80;99.90;;;;;;5073981;28;20215;-83
2023/10/16 06:53:47;;;;;;;0.30;0.20;;;18.60;99.90;;;;;;5074376;28;20280;-78
2023/10/16 06:56:27;;;;;;;0.45;0.20;;;18.50;99.90;;;;;;5072020;28;20256;-77
2023/10/16 06:59:01;;;;;;;0.68;0.20;;;18.40;99.90;;;;;;5073910;28;20196;-85
2023/10/16 07:01:34;;;;;;;0.50;0.28;;;18.30;99.90;;;;;;5061143;28;20207;-80
2023/10/16 07:04:05;;;;;;;1.02;0.30;;;18.20;99.90;;;;;;5057768;28;20713;-81
2023/10/16 07:06:36;;;;;;;0.60;0.30;;;18.20;99.90;;;;;;5066419;28;20239;-76
2023/10/16 07:09:07;;;;;;;0.80;0.30;;;18.20;99.90;;;;;;5056000;28;20189;-83
2023/10/16 07:11:42;;;;;;;0.60;0.30;;;18.10;99.90;;;;;;5068405;28;20617;-78
2023/10/16 07:14:17;;;;;;;1.65;0.50;;;18.00;99.90;;;;;;5060570;28;20702;-76
2023/10/16 07:16:48;;;;;;;0.35;0.30;;;17.90;99.90;;;;;;5060912;28;20204;-76
2023/10/16 07:19:18;;;;;;;1.60;0.50;;;17.80;99.90;;;;;;5065986;28;20205;-77
2023/10/16 07:21:50;;;;;;;2.25;0.77;;;17.70;99.90;;;;;;5051683;28;20200;-77
2023/10/16 07:24:21;;;;;;;2.25;0.60;;;17.60;99.90;;;;;;5072490;28;20318;-81
2023/10/16 07:26:52;;;;;;;1.23;0.35;;;17.50;99.90;;;;;;5072717;28;20200;-78
2023/10/16 07:29:25;;;;;;;2.40;0.40;;;17.40;99.90;;;;;;5073356;28;20200;-78
2023/10/16 07:31:55;;;;;;;1.70;0.40;;;17.30;99.90;;;;;;5073741;28;20236;-81
2023/10/16 07:34:31;;;;;;;1.80;0.65;;;17.20;99.90;;;;;;5073243;28;20648;-81
2023/10/16 07:37:02;;;;;;;2.75;0.75;;;17.20;99.90;;;;;;5065899;28;20200;-83
2023/10/16 07:39:35;;;;;;;2.63;0.55;;;17.10;99.90;;;;;;5073809;28;20604;-82
2023/10/16 07:42:10;;;;;;;1.45;0.60;;;17.00;99.90;;;;;;5073486;28;20193;-84
2023/10/16 07:44:45;;;;;;;1.88;0.70;;;17.00;99.90;;;;;;5073697;28;20184;-83
2023/10/16 07:47:16;;;;;;;2.88;0.60;;;16.90;99.90;;;;;;5073225;28;20197;-80
2023/10/16 07:49:49;;;;;;;1.20;0.50;;;16.90;99.90;;;;;;5066260;28;20193;-79
2023/10/16 07:52:23;;;;;;;2.70;0.70;;;16.80;99.90;;;;;;5071545;28;20213;-76
2023/10/16 07:54:53;;;;;;;1.75;0.50;;;16.70;99.90;;;;;;5055884;28;20304;-77
2023/10/16 07:57:25;;;;;;;2.90;0.50;;;16.70;99.90;;;;;;5062842;28;20499;-76
2023/10/16 07:59:58;;;;;;;0.98;0.40;;;16.70;99.90;;;;;;5073244;28;20635;-76
2023/10/16 08:02:29;;;;;;;1.63;0.60;;;16.70;99.90;;;;;;5072160;28;20201;-77
2023/10/16 08:05:03;;;;;;;1.70;0.60;;;16.70;99.90;;;;;;5073041;28;20712;-80
2023/10/16 08:07:46;;;;;;;2.35;0.50;;;16.60;99.90;;;;;;5072811;28;20204;-80
2023/10/16 08:13:17;;;;;;;1.10;0.57;;;16.60;99.90;;;;;;5021606;28;20309;-76
2023/10/16 08:15:51;;;;;;;2.25;0.40;;;16.60;99.90;;;;;;5053893;28;20220;-77
2023/10/16 08:18:25;;;;;;;1.42;0.47;;;16.60;99.90;;;;;;5059976;28;20232;-77
2023/10/16 08:21:08;;;;;;;3.38;0.75;;;16.60;99.90;;;;;;5069948;28;20209;-77
2023/10/16 08:23:45;;;;;;;1.58;0.50;;;16.60;99.90;;;;;;5067297;28;20197;-77
2023/10/16 08:26:19;;;;;;;1.13;0.40;;;16.60;99.90;;;;;;5069262;28;20196;-82
2023/10/16 08:28:50;;;;;;;1.15;0.45;;;16.50;99.90;;;;;;5072180;28;20644;-83
2023/10/16 08:31:25;;;;;;;1.88;0.75;;;16.60;99.90;;;;;;5065128;28;20231;-79
2023/10/16 08:33:59;;;;;;;1.80;0.57;;;16.50;99.90;;;;;;5071294;28;20216;-80
2023/10/16 08:36:30;;;;;;;1.20;0.47;;;16.40;99.90;;;;;;5070612;28;20201;-82
2023/10/16 08:39:08;;;;;;;0.80;0.50;;;16.30;99.90;;;;;;5073006;28;20748;-81
2023/10/16 08:41:51;;;;;;;5.45;0.80;;;16.30;99.90;;;;;;5072770;28;20197;-82
2023/10/16 08:44:24;;;;;;;1.50;0.50;;;16.30;99.90;;;;;;5071997;28;20229;-84
2023/10/16 08:49:41;;;;;;;0.77;0.52;;;16.20;99.90;;;;;;5072819;28;20193;-83
2023/10/16 08:52:21;;;;;;;1.35;0.60;;;16.10;99.90;;;;;;5072767;28;20216;-82
2023/10/16 08:55:14;;;;;;;1.00;0.60;;;16.10;99.90;;;;;;5062129;28;20216;-78
2023/10/16 08:57:48;;;;;;;0.57;0.40;;;16.10;99.90;;;;;;5070506;28;20255;-80
2023/10/16 09:00:22;;;;;;;1.08;0.50;;;15.90;99.90;;;;;;5072528;28;20208;-78
2023/10/16 09:02:56;;;;;;;0.85;0.43;;;15.70;99.90;;;;;;5071593;28;20247;-83
2023/10/16 09:05:27;;;;;;;0.73;0.30;;;15.50;99.90;;;;;;5065569;28;20199;-80
2023/10/16 09:07:58;;;;;;;0.55;0.20;;;15.30;99.90;;;;;;5072002;28;20604;-80
2023/10/16 09:10:30;;;;;;;2.25;0.25;;;15.10;99.90;;;;;;5059799;28;20193;-79
2023/10/16 09:13:19;;;;;;;1.73;0.25;;;14.90;99.90;;;;;;5070477;28;20556;-82
2023/10/16 09:15:50;;;;;;;0.30;0.20;;;14.80;99.90;;;;;;5069905;28;20205;-79
2023/10/16 09:18:23;;;;;;;0.30;0.30;;;14.60;99.90;;;;;;5069215;28;20202;-80
2023/10/16 09:21:00;;;;;;;0.40;0.30;;;14.30;99.90;;;;;;5067770;28;20193;-78
2023/10/16 09:23:38;;;;;;;1.25;0.20;;;14.20;99.90;;;;;;5057048;28;20189;-78
2023/10/16 09:26:10;;;;;;;0.20;0.20;;;14.10;99.90;;;;;;5064917;28;20205;-78
2023/10/16 09:28:42;;;;;;;1.30;0.30;;;14.00;99.90;;;;;;5074882;28;20631;-78
2023/10/16 09:31:17;;;;;;;0.85;0.30;;;14.00;99.90;;;;;;5075588;28;20232;-79
2023/10/16 09:33:50;;;;;;;0.20;0.20;;;14.00;99.90;;;;;;5076022;28;20220;-78
2023/10/16 09:36:22;;;;;;;0.20;0.20;;;14.00;99.90;;;;;;5075113;28;20197;-78
2023/10/16 09:38:56;;;;;;;0.60;0.40;;;14.00;99.90;;;;;;5075633;28;20275;-79
2023/10/16 09:41:42;;;;;;;0.28;0.28;;;14.10;99.90;;;;;;5076014;28;20307;-78
2023/10/16 09:44:24;;;;;;;0.20;0.20;;;14.20;99.90;;;;;;5075829;28;20200;-78
2023/10/16 09:46:57;;;;;;;0.40;0.38;;;14.20;99.90;;;;;;5075886;28;20197;-78
2023/10/16 09:49:33;;;;;;;0.52;0.30;;;14.30;99.90;;;;;;5075990;28;20219;-79
2023/10/16 09:52:06;;;;;;;0.30;0.30;;;14.30;99.90;;;;;;5075916;28;20258;-78
2023/10/16 09:54:37;;;;;;;0.60;0.30;;;14.30;99.90;;;;;;5065785;28;20221;-79
2023/10/16 09:57:15;;;;;;;0.82;0.40;;;14.30;99.90;;;;;;5072907;28;20222;-80
2023/10/16 09:59:46;;;;;;;0.32;0.32;;;14.30;99.90;;;;;;5074415;28;20196;-83
2023/10/16 10:02:20;;;;;;;1.67;0.40;;;14.30;99.90;;;;;;5070938;28;20200;-82
2023/10/16 10:04:59;;;;;;;0.30;0.30;;;14.30;99.90;;;;;;5059733;28;20205;-82
2023/10/16 10:07:38;;;;;;;0.40;0.25;;;14.30;99.90;;;;;;5070817;28;20244;-83
2023/10/16 10:12:58;;;;;;;0.47;0.35;;;14.30;99.90;;;;;;5070113;28;20221;-82
2023/10/16 10:15:36;;;;;;;0.60;0.30;;;14.30;99.90;;;;;;5068699;28;20271;-83
2023/10/16 10:21:02;;;;;;;0.30;0.30;;;14.30;99.90;;;;;;5075922;28;20208;-81
2023/10/16 10:23:36;;;;;;;0.60;0.20;;;14.20;99.90;;;;;;5072397;28;20242;-81
2023/10/16 10:26:07;;;;;;;0.32;0.30;;;14.20;99.90;;;;;;5074740;28;20284;-79
2023/10/16 10:28:40;;;;;;;0.73;0.40;;;14.20;99.90;;;;;;5069147;28;20221;-83
2023/10/16 10:31:15;;;;;;;0.80;0.30;;;14.10;99.90;;;;;;5066224;28;20313;-83
2023/10/16 10:33:55;;;;;;;0.30;0.30;;;14.20;99.90;;;;;;5074334;28;20738;-84
2023/10/16 10:36:43;;;;;;;0.40;0.40;;;14.20;99.90;;;;;;5061141;28;20199;-83
2023/10/16 10:39:46;;;;;;;1.10;0.40;;;14.20;99.90;;;;;;5072058;28;20189;-82
2023/10/16 10:42:23;;;;;;;0.50;0.30;;;14.10;99.90;;;;;;5072275;28;20679;-83
2023/10/16 10:45:21;;;;;;;1.05;0.40;;;14.20;99.90;;;;;;5068277;28;20192;-82
2023/10/16 10:47:54;;;;;;;0.63;0.35;;;14.20;99.90;;;;;;5073243;28;20280;-83
2023/10/16 10:50:29;;;;;;;0.65;0.30;;;14.20;99.90;;;;;;5074029;28;20189;-82
2023/10/16 10:53:04;;;;;;;1.00;0.45;;;14.20;99.90;;;;;;5073932;28;20208;-84
2023/10/16 10:55:36;;;;;;;0.82;0.52;;;14.20;99.90;;;;;;5074533;28;20262;-83
2023/10/16 10:58:13;;;;;;;0.30;0.30;;;14.20;99.90;;;;;;5074050;28;20235;-82
2023/10/16 11:00:50;;;;;;;0.50;0.50;;;14.20;99.90;;;;;;5072184;28;20208;-83
2023/10/16 11:03:41;;;;;;;0.47;0.38;;;14.10;99.90;;;;;;5072841;28;20271;-81
2023/10/16 11:06:19;;;;;;;0.65;0.30;;;14.10;99.90;;;;;;5072953;28;20213;-84
2023/10/16 11:08:58;;;;;;;0.43;0.40;;;14.10;99.90;;;;;;5075245;28;20203;-82
2023/10/16 11:11:28;;;;;;;0.52;0.40;;;14.10;99.90;;;;;;5066845;28;20275;-82
2023/10/16 11:13:59;;;;;;;0.47;0.40;;;14.00;99.90;;;;;;5061896;28;20221;-83
2023/10/16 11:16:30;;;;;;;0.40;0.40;;;14.00;99.90;;;;;;5074353;28;20193;-78
2023/10/16 11:19:05;;;;;;;0.50;0.40;;;13.90;99.90;;;;;;5058395;28;20208;-80
2023/10/16 11:21:37;;;;;;;1.13;0.30;;;13.90;99.90;;;;;;5064791;28;20189;-80
2023/10/16 11:24:10;;;;;;;0.63;0.50;;;13.80;99.90;;;;;;5057461;28;20311;-78
2023/10/16 11:26:41;;;;;;;0.88;0.40;;;13.70;99.90;;;;;;5074074;28;20226;-79
2023/10/16 11:29:14;;;;;;;0.82;0.50;;;13.70;99.90;;;;;;5074075;28;20272;-79
2023/10/16 11:31:45;;;;;;;0.55;0.50;;;13.70;99.90;;;;;;5078001;28;20242;-83
2023/10/16 11:34:24;;;;;;;0.60;0.60;;;13.60;99.90;;;;;;5091787;28;20697;-79
2023/10/16 11:36:57;;;;;;;0.88;0.60;;;13.60;99.90;;;;;;5063138;28;20246;-83
2023/10/16 11:39:30;;;;;;;0.90;0.52;;;13.50;99.90;;;;;;5071300;28;20195;-80
2023/10/16 11:42:02;;;;;;;0.45;0.40;;;13.50;99.90;;;;;;5071235;28;20561;-78
2023/10/16 11:44:34;;;;;;;0.65;0.50;;;13.50;99.90;;;;;;5072826;28;20272;-82
2023/10/16 11:47:08;;;;;;;0.75;0.50;;;13.50;99.90;;;;;;5068725;28;20192;-79
2023/10/16 11:49:39;;;;;;;1.10;0.70;;;13.50;99.90;;;;;;5069554;28;20267;-79
2023/10/16 11:52:19;;;;;;;1.17;0.70;;;13.40;99.90;;;;;;5068812;28;20204;-79
2023/10/16 11:54:56;;;;;;;3.13;0.82;;;13.40;99.90;;;;;;5067712;28;20232;-79
2023/10/16 11:57:27;;;;;;;1.25;0.70;;;13.40;99.90;;;;;;5072588;28;20193;-79
2023/10/16 11:59:58;;;;;;;2.55;0.80;;;13.30;99.90;;;;;;5071741;28;20201;-78
2023/10/16 12:02:31;;;;;;;1.95;0.90;;;13.30;99.90;;;;;;5059264;28;20204;-78
2023/10/16 12:05:05;;;;;;;1.77;0.77;;;13.20;99.90;;;;;;5056347;28;20198;-80
2023/10/16 12:07:43;;;;;;;1.33;0.65;;;13.20;99.90;;;;;;5067355;28;20325;-82
2023/10/16 12:10:17;;;;;;;0.90;0.70;;;13.10;99.90;;;;;;5066551;28;20204;-82
2023/10/16 12:12:49;;;;;;;1.35;0.68;;;13.10;99.90;;;;;;5059620;28;20287;-78
2023/10/16 12:15:20;;;;;;;1.83;0.70;;;13.10;99.90;;;;;;5061941;28;20288;-83
2023/10/16 12:17:53;;;;;;;2.83;0.75;;;13.10;99.90;;;;;;5072853;28;20224;-82
2023/10/16 12:20:26;;;;;;;1.20;0.50;;;13.10;99.90;;;;;;5072820;28;20193;-80
2023/10/16 12:22:57;;;;;;;2.05;0.40;;;13.10;99.90;;;;;;5072397;28;20216;-78
2023/10/16 12:25:30;;;;;;;0.50;0.43;;;13.00;99.90;;;;;;5069671;28;20200;-79
2023/10/16 12:28:01;;;;;;;0.60;0.60;;;13.00;99.90;;;;;;5054917;28;20631;-80
2023/10/16 12:30:32;;;;;;;1.65;0.60;;;13.00;99.90;;;;;;5073156;28;20276;-79
2023/10/16 12:33:05;;;;;;;1.58;0.70;;;12.90;99.90;;;;;;5073145;28;20231;-78
2023/10/16 12:35:36;;;;;;;0.68;0.40;;;12.90;99.90;;;;;;5073563;28;20189;-81
2023/10/16 12:38:07;;;;;;;0.70;0.50;;;12.90;99.90;;;;;;5073329;28;20185;-80
2023/10/16 12:40:40;;;;;;;0.75;0.60;;;12.90;99.90;;;;;;5067894;28;20320;-79
2023/10/16 12:43:11;;;;;;;0.60;0.50;;;12.80;99.90;;;;;;5068997;28;20201;-83
2023/10/16 12:45:41;;;;;;;1.05;0.55;;;12.80;99.90;;;;;;5067724;28;20193;-82
2023/10/16 12:48:12;;;;;;;0.75;0.50;;;12.70;99.90;;;;;;5064911;28;20196;-81
2023/10/16 12:50:43;;;;;;;0.57;0.50;;;12.70;99.90;;;;;;5058524;28;20552;-78
2023/10/16 12:53:14;;;;;;;0.60;0.60;;;12.70;99.90;;;;;;5063502;28;20232;-79
2023/10/16 12:55:49;;;;;;;4.78;0.50;;;12.70;99.90;;;;;;5074361;28;20197;-80
2023/10/16 12:58:20;;;;;;;0.50;0.50;;;12.60;99.90;;;;;;5075002;28;20203;-82
2023/10/16 13:00:52;;;;;;;0.65;0.47;;;12.60;99.90;;;;;;5070928;28;20192;-79
2023/10/16 13:03:23;;;;;;;0.45;0.40;;;12.60;99.90;;;;;;5068993;28;20192;-80
2023/10/16 13:05:54;;;;;;;0.88;0.40;;;12.60;99.90;;;;;;5064099;28;20193;-79
2023/10/16 13:08:26;;;;;;;2.63;0.40;;;12.60;99.90;;;;;;5068688;28;20198;-79
2023/10/16 13:10:59;;;;;;;1.30;0.60;;;12.60;99.90;;;;;;5059815;28;20193;-82
2023/10/16 13:13:30;;;;;;;0.75;0.52;;;12.60;99.90;;;;;;5074928;28;20252;-77
2023/10/16 13:16:00;;;;;;;0.50;0.40;;;12.60;99.90;;;;;;5074795;28;20200;-78
2023/10/16 13:18:31;;;;;;;0.98;0.50;;;12.50;99.90;;;;;;5065822;28;20204;-78
2023/10/16 13:21:12;;;;;;;0.50;0.40;;;12.50;99.90;;;;;;5076545;28;20196;-78
2023/10/16 13:23:43;;;;;;;2.47;0.70;;;12.50;99.90;;;;;;5075757;28;20235;-80
2023/10/16 13:26:17;;;;;;;1.30;0.50;;;12.50;99.90;;;;;;5063928;28;20288;-80
2023/10/16 13:28:48;;;;;;;0.90;0.40;;;12.40;99.90;;;;;;5076208;28;20528;-78
2023/10/16 13:31:19;;;;;;;1.88;0.50;;;12.40;99.90;;;;;;5075454;28;20719;-80
2023/10/16 13:33:50;;;;;;;0.77;0.50;;;12.40;99.90;;;;;;5061180;28;20574;-78
2023/10/16 13:36:21;;;;;;;0.57;0.50;;;12.40;99.90;;;;;;5075995;28;20604;-79
2023/10/16 13:38:53;;;;;;;1.38;0.60;;;12.30;99.90;;;;;;5075959;28;20195;-79
2023/10/16 13:41:28;;;;;;;0.73;0.40;;;12.30;99.90;;;;;;5075811;28;20622;-77
2023/10/16 13:43:58;;;;;;;1.48;0.50;;;12.30;99.90;;;;;;5075928;28;20188;-79
2023/10/16 13:46:29;;;;;;;0.52;0.50;;;12.30;99.90;;;;;;5075177;28;20195;-78
2023/10/16 13:49:00;;;;;;;1.25;0.50;;;12.30;99.90;;;;;;5070193;28;20212;-78
2023/10/16 13:51:35;;;;;;;0.57;0.45;;;12.20;99.90;;;;;;5074204;28;20574;-79
2023/10/16 13:54:11;;;;;;;1.10;0.50;;;12.20;99.90;;;;;;5071008;28;20263;-77
2023/10/16 13:56:46;;;;;;;1.83;0.40;;;12.20;99.90;;;;;;5071450;28;20204;-80
2023/10/16 13:59:18;;;;;;;0.32;0.30;;;12.20;99.90;;;;;;5074466;28;20203;-78
2023/10/16 14:01:48;;;;;;;1.08;0.57;;;12.20;99.90;;;;;;5068269;28;20280;-78
2023/10/16 14:04:21;;;;;;;0.50;0.50;;;12.10;99.90;;;;;;5071783;28;20193;-80
2023/10/16 14:06:53;;;;;;;1.17;0.50;;;12.10;99.90;;;;;;5056479;28;20198;-80
2023/10/16 14:09:27;;;;;;;1.13;0.50;;;12.10;99.90;;;;;;5070151;28;20197;-80
2023/10/16 14:12:01;;;;;;;0.98;0.50;;;12.10;99.90;;;;;;5074012;28;20207;-80
2023/10/16 14:14:33;;;;;;;2.05;0.70;;;12.00;99.90;;;;;;5056184;28;20217;-81
2023/10/16 14:17:05;;;;;;;1.85;0.50;;;12.00;99.90;;;;;;5055929;28;20260;-79
2023/10/16 14:19:47;;;;;;;3.63;0.60;;;12.00;99.90;;;;;;5066770;28;20198;-80
2023/10/16 14:22:19;;;;;;;0.55;0.40;;;11.90;99.90;;;;;;5069574;28;20207;-80
2023/10/16 14:24:50;;;;;;;1.23;0.50;;;11.90;99.90;;;;;;5073542;28;20189;-82
2023/10/16 14:27:24;;;;;;;3.72;0.50;;;11.90;99.90;;;;;;5074478;28;20669;-80
2023/10/16 14:29:59;;;;;;;1.10;0.50;;;11.90;99.90;;;;;;5073565;28;20291;-80
2023/10/16 14:32:29;;;;;;;1.10;0.50;;;11.80;99.90;;;;;;5072375;28;20239;-81
2023/10/16 14:35:00;;;;;;;0.95;0.45;;;11.80;99.90;;;;;;5066060;28;20227;-80
2023/10/16 14:37:31;;;;;;;0.77;0.40;;;11.80;99.90;;;;;;5058416;28;20300;-81
2023/10/16 14:40:04;;;;;;;0.70;0.60;;;11.80;99.90;;;;;;5073935;28;20644;-79
2023/10/16 14:42:39;;;;;;;1.35;0.50;;;11.80;99.90;;;;;;5063718;28;20193;-79
2023/10/16 14:45:10;;;;;;;0.40;0.40;;;11.80;99.90;;;;;;5074944;28;20214;-81